sensor_id;sensor_type;location;lat;lon;timestamp;pressure;altitude;pressure_sealevel;temperature;humidity
33286;BME280;19656;50.096;20.014;2023-03-21T00:02:02;98967.61;;;12.31;63.98
33286;BME280;19656;50.096;20.014;2023-03-21T00:07:06;98962.75;;;12.29;64.16
33286;BME280;19656;50.096;20.014;2023-03-21T00:12:09;98958.48;;;12.27;64.13
33286;BME280;19656;50.096;20.014;2023-03-21T00:17:13;98957.35;;;12.23;64.35
33286;BME280;19656;50.096;20.014;2023-03-21T00:22:18;98956.88;;;12.22;64.43
33286;BME280;19656;50.096;20.014;2023-03-21T00:27:21;98955.92;;;12.18;64.64
33286;BME280;19656;50.096;20.014;2023-03-21T00:32:46;98954.72;;;12.12;64.88
33286;BME280;19656;50.096;20.014;2023-03-21T00:37:58;98954.73;;;12.14;65.04
33286;BME280;19656;50.096;20.014;2023-03-21T00:43:10;98947.32;;;12.21;64.92
33286;BME280;19656;50.096;20.014;2023-03-21T00:48:14;98940.58;;;12.23;64.79
33286;BME280;19656;50.096;20.014;2023-03-21T00:53:17;98940.38;;;12.26;64.71
33286;BME280;19656;50.096;20.014;2023-03-21T00:58:21;98935.91;;;12.24;64.84
33286;BME280;19656;50.096;20.014;2023-03-21T01:03:24;98933.95;;;12.24;64.87
33286;BME280;19656;50.096;20.014;2023-03-21T01:08:29;98927.86;;;12.25;64.81
33286;BME280;19656;50.096;20.014;2023-03-21T01:13:47;98929.16;;;12.21;64.85
33286;BME280;19656;50.096;20.014;2023-03-21T01:19:14;98930.17;;;12.09;65.09
33286;BME280;19656;50.096;20.014;2023-03-21T01:24:29;98935.66;;;12.07;65.31
33286;BME280;19656;50.096;20.014;2023-03-21T01:29:35;98931.80;;;12.06;65.40
33286;BME280;19656;50.096;20.014;2023-03-21T01:34:40;98933.84;;;12.08;65.52
33286;BME280;19656;50.096;20.014;2023-03-21T01:39:43;98940.77;;;12.08;65.60
33286;BME280;19656;50.096;20.014;2023-03-21T01:45:01;98940.46;;;12.15;65.72
33286;BME280;19656;50.096;20.014;2023-03-21T01:50:13;98935.95;;;12.16;65.62
33286;BME280;19656;50.096;20.014;2023-03-21T01:55:30;98936.23;;;12.14;65.68
33286;BME280;19656;50.096;20.014;2023-03-21T02:00:56;98938.23;;;12.14;65.66
33286;BME280;19656;50.096;20.014;2023-03-21T02:06:13;98933.50;;;12.15;65.74
33286;BME280;19656;50.096;20.014;2023-03-21T02:11:20;98935.52;;;12.09;65.68
33286;BME280;19656;50.096;20.014;2023-03-21T02:28:24;98930.88;;;11.94;66.32
33286;BME280;19656;50.096;20.014;2023-03-21T02:45:16;98927.48;;;11.97;66.72
33286;BME280;19656;50.096;20.014;2023-03-21T02:50:44;98925.72;;;11.97;66.89
33286;BME280;19656;50.096;20.014;2023-03-21T02:55:50;98925.55;;;11.99;67.04
33286;BME280;19656;50.096;20.014;2023-03-21T03:00:56;98929.48;;;11.96;67.12
33286;BME280;19656;50.096;20.014;2023-03-21T03:06:21;98927.45;;;11.92;67.30
33286;BME280;19656;50.096;20.014;2023-03-21T03:11:34;98926.85;;;11.91;67.47
33286;BME280;19656;50.096;20.014;2023-03-21T03:21:58;98923.80;;;11.89;67.94
33286;BME280;19656;50.096;20.014;2023-03-21T03:32:45;98929.16;;;12.01;68.22
33286;BME280;19656;50.096;20.014;2023-03-21T03:37:55;98926.38;;;12.02;68.21
33286;BME280;19656;50.096;20.014;2023-03-21T03:43:04;98929.92;;;11.93;68.35
33286;BME280;19656;50.096;20.014;2023-03-21T03:48:27;98931.94;;;11.78;68.99
33286;BME280;19656;50.096;20.014;2023-03-21T03:53:37;98935.48;;;11.76;69.31
33286;BME280;19656;50.096;20.014;2023-03-21T03:58:43;98936.66;;;11.74;69.35
33286;BME280;19656;50.096;20.014;2023-03-21T04:03:50;98937.45;;;11.76;69.32
33286;BME280;19656;50.096;20.014;2023-03-21T04:09:11;98929.20;;;11.80;69.24
33286;BME280;19656;50.096;20.014;2023-03-21T04:14:25;98930.61;;;11.74;69.06
33286;BME280;19656;50.096;20.014;2023-03-21T04:19:45;98930.16;;;11.68;69.24
33286;BME280;19656;50.096;20.014;2023-03-21T04:24:49;98928.95;;;11.62;69.45
33286;BME280;19656;50.096;20.014;2023-03-21T04:29:57;98928.11;;;11.62;69.57
33286;BME280;19656;50.096;20.014;2023-03-21T04:35:17;98928.00;;;11.55;69.61
33286;BME280;19656;50.096;20.014;2023-03-21T04:40:21;98926.73;;;11.48;69.78
33286;BME280;19656;50.096;20.014;2023-03-21T04:45:27;98928.55;;;11.50;69.99
33286;BME280;19656;50.096;20.014;2023-03-21T04:50:31;98932.41;;;11.58;69.91
33286;BME280;19656;50.096;20.014;2023-03-21T04:55:34;98937.63;;;11.63;69.95
33286;BME280;19656;50.096;20.014;2023-03-21T05:00:40;98937.51;;;11.70;69.90
33286;BME280;19656;50.096;20.014;2023-03-21T05:05:43;98939.11;;;11.64;69.95
33286;BME280;19656;50.096;20.014;2023-03-21T05:10:47;98935.61;;;11.61;70.21
33286;BME280;19656;50.096;20.014;2023-03-21T05:15:50;98943.31;;;11.63;70.30
33286;BME280;19656;50.096;20.014;2023-03-21T05:20:55;98942.05;;;11.58;70.25
33286;BME280;19656;50.096;20.014;2023-03-21T05:26:00;98942.81;;;11.57;70.21
33286;BME280;19656;50.096;20.014;2023-03-21T05:31:14;98944.45;;;11.62;70.23
33286;BME280;19656;50.096;20.014;2023-03-21T05:36:22;98946.20;;;11.65;70.13
33286;BME280;19656;50.096;20.014;2023-03-21T05:41:26;98955.98;;;11.62;70.01
33286;BME280;19656;50.096;20.014;2023-03-21T05:46:29;98956.63;;;11.57;70.13
33286;BME280;19656;50.096;20.014;2023-03-21T05:51:34;98962.07;;;11.56;70.15
33286;BME280;19656;50.096;20.014;2023-03-21T05:56:37;98965.64;;;11.55;70.04
33286;BME280;19656;50.096;20.014;2023-03-21T06:01:45;98966.17;;;11.48;70.06
33286;BME280;19656;50.096;20.014;2023-03-21T06:06:49;98971.63;;;11.38;70.27
33286;BME280;19656;50.096;20.014;2023-03-21T06:11:56;98973.16;;;11.44;70.30
33286;BME280;19656;50.096;20.014;2023-03-21T06:17:09;98974.78;;;11.57;69.95
33286;BME280;19656;50.096;20.014;2023-03-21T06:22:17;98975.66;;;11.57;69.85
33286;BME280;19656;50.096;20.014;2023-03-21T06:27:21;98972.94;;;11.53;69.79
33286;BME280;19656;50.096;20.014;2023-03-21T06:32:28;98970.77;;;11.48;69.96
33286;BME280;19656;50.096;20.014;2023-03-21T06:37:36;98976.63;;;11.51;69.84
33286;BME280;19656;50.096;20.014;2023-03-21T06:42:41;98972.52;;;11.46;69.93
33286;BME280;19656;50.096;20.014;2023-03-21T06:47:46;98978.21;;;11.43;69.96
33286;BME280;19656;50.096;20.014;2023-03-21T06:53:28;98975.02;;;11.51;70.06
33286;BME280;19656;50.096;20.014;2023-03-21T06:58:48;98978.22;;;11.59;70.08
33286;BME280;19656;50.096;20.014;2023-03-21T07:10:22;98979.42;;;11.73;69.26
33286;BME280;19656;50.096;20.014;2023-03-21T07:15:34;98983.94;;;11.72;69.04
33286;BME280;19656;50.096;20.014;2023-03-21T07:20:45;98980.16;;;11.75;68.93
33286;BME280;19656;50.096;20.014;2023-03-21T07:25:51;98979.45;;;11.83;69.15
33286;BME280;19656;50.096;20.014;2023-03-21T07:30:57;98979.48;;;11.94;69.09
33286;BME280;19656;50.096;20.014;2023-03-21T07:36:01;98978.11;;;12.00;68.76
33286;BME280;19656;50.096;20.014;2023-03-21T07:41:05;98975.09;;;12.13;68.14
33286;BME280;19656;50.096;20.014;2023-03-21T07:46:09;98979.39;;;12.15;67.44
33286;BME280;19656;50.096;20.014;2023-03-21T07:51:13;98983.63;;;12.11;67.20
33286;BME280;19656;50.096;20.014;2023-03-21T07:56:17;98988.37;;;12.04;67.06
33286;BME280;19656;50.096;20.014;2023-03-21T08:01:20;98990.50;;;11.93;67.16
33286;BME280;19656;50.096;20.014;2023-03-21T08:06:26;98991.93;;;11.83;67.53
33286;BME280;19656;50.096;20.014;2023-03-21T08:11:30;98994.17;;;11.78;67.88
33286;BME280;19656;50.096;20.014;2023-03-21T08:16:34;98995.37;;;11.79;68.37
33286;BME280;19656;50.096;20.014;2023-03-21T08:21:37;98996.08;;;11.76;68.77
33286;BME280;19656;50.096;20.014;2023-03-21T08:26:41;98998.28;;;11.75;69.03
33286;BME280;19656;50.096;20.014;2023-03-21T08:38:12;99003.89;;;11.58;69.83
33286;BME280;19656;50.096;20.014;2023-03-21T08:43:16;99006.68;;;11.56;70.08
33286;BME280;19656;50.096;20.014;2023-03-21T08:48:19;99011.86;;;11.50;70.12
33286;BME280;19656;50.096;20.014;2023-03-21T08:53:23;99010.53;;;11.51;70.22
33286;BME280;19656;50.096;20.014;2023-03-21T08:58:26;99016.27;;;11.58;70.08
33286;BME280;19656;50.096;20.014;2023-03-21T09:03:30;99016.10;;;11.61;70.38
33286;BME280;19656;50.096;20.014;2023-03-21T09:08:33;99015.44;;;11.82;70.76
33286;BME280;19656;50.096;20.014;2023-03-21T09:13:37;99018.88;;;12.05;70.49
33286;BME280;19656;50.096;20.014;2023-03-21T09:18:40;99018.58;;;12.17;70.12
33286;BME280;19656;50.096;20.014;2023-03-21T09:23:53;99011.41;;;12.41;70.14
33286;BME280;19656;50.096;20.014;2023-03-21T09:28:59;99018.95;;;12.42;69.39
33286;BME280;19656;50.096;20.014;2023-03-21T09:34:03;99017.33;;;12.48;69.14
33286;BME280;19656;50.096;20.014;2023-03-21T09:39:06;99018.78;;;12.55;67.93
33286;BME280;19656;50.096;20.014;2023-03-21T09:50:03;99023.77;;;12.24;68.02
33286;BME280;19656;50.096;20.014;2023-03-21T09:55:20;99022.42;;;12.18;68.39
33286;BME280;19656;50.096;20.014;2023-03-21T10:06:55;99023.38;;;12.09;68.73
33286;BME280;19656;50.096;20.014;2023-03-21T10:12:04;99018.19;;;12.15;68.27
33286;BME280;19656;50.096;20.014;2023-03-21T10:17:32;99015.52;;;12.33;67.85
33286;BME280;19656;50.096;20.014;2023-03-21T10:22:37;99013.52;;;12.46;67.54
33286;BME280;19656;50.096;20.014;2023-03-21T10:27:40;99016.64;;;12.47;67.10
33286;BME280;19656;50.096;20.014;2023-03-21T10:32:45;99021.77;;;12.48;66.74
33286;BME280;19656;50.096;20.014;2023-03-21T10:37:48;99022.47;;;12.43;66.18
33286;BME280;19656;50.096;20.014;2023-03-21T10:42:55;99021.84;;;12.32;66.33
33286;BME280;19656;50.096;20.014;2023-03-21T10:48:08;99019.77;;;12.36;66.26
33286;BME280;19656;50.096;20.014;2023-03-21T10:53:20;99021.71;;;12.38;65.91
33286;BME280;19656;50.096;20.014;2023-03-21T10:58:29;99017.88;;;12.45;65.73
33286;BME280;19656;50.096;20.014;2023-03-21T11:03:37;99018.26;;;12.55;65.46
33286;BME280;19656;50.096;20.014;2023-03-21T11:08:53;99020.98;;;12.64;64.56
33286;BME280;19656;50.096;20.014;2023-03-21T11:14:00;99018.11;;;12.69;64.26
33286;BME280;19656;50.096;20.014;2023-03-21T11:19:19;99016.70;;;12.69;63.03
33286;BME280;19656;50.096;20.014;2023-03-21T11:24:30;99016.66;;;12.67;62.40
33286;BME280;19656;50.096;20.014;2023-03-21T11:29:39;99012.27;;;12.64;62.19
33286;BME280;19656;50.096;20.014;2023-03-21T11:34:53;99013.29;;;12.67;61.85
33286;BME280;19656;50.096;20.014;2023-03-21T11:45:24;99006.04;;;12.54;62.10
33286;BME280;19656;50.096;20.014;2023-03-21T11:55:59;99004.09;;;12.41;62.81
33286;BME280;19656;50.096;20.014;2023-03-21T12:06:40;99002.54;;;12.40;62.81
33286;BME280;19656;50.096;20.014;2023-03-21T12:12:08;99002.84;;;12.46;63.71
33286;BME280;19656;50.096;20.014;2023-03-21T12:22:44;98998.21;;;12.41;64.59
33286;BME280;19656;50.096;20.014;2023-03-21T12:28:25;98996.52;;;12.33;64.97
33286;BME280;19656;50.096;20.014;2023-03-21T12:33:58;98990.16;;;12.39;64.95
33286;BME280;19656;50.096;20.014;2023-03-21T12:44:36;98985.89;;;12.54;65.44
33286;BME280;19656;50.096;20.014;2023-03-21T12:49:55;98981.98;;;12.54;64.54
33286;BME280;19656;50.096;20.014;2023-03-21T12:55:19;98979.89;;;12.51;64.34
33286;BME280;19656;50.096;20.014;2023-03-21T13:00:29;98977.31;;;12.52;64.31
33286;BME280;19656;50.096;20.014;2023-03-21T13:05:47;98980.85;;;12.53;64.13
33286;BME280;19656;50.096;20.014;2023-03-21T13:10:53;98971.02;;;12.66;64.18
33286;BME280;19656;50.096;20.014;2023-03-21T13:16:02;98966.66;;;12.74;63.93
33286;BME280;19656;50.096;20.014;2023-03-21T13:26:39;98962.02;;;12.87;63.13
33286;BME280;19656;50.096;20.014;2023-03-21T13:31:47;98959.45;;;12.90;63.21
33286;BME280;19656;50.096;20.014;2023-03-21T13:36:56;98954.79;;;12.93;63.19
33286;BME280;19656;50.096;20.014;2023-03-21T13:42:04;98952.27;;;12.96;62.59
33286;BME280;19656;50.096;20.014;2023-03-21T13:47:50;98956.12;;;12.92;62.53
33286;BME280;19656;50.096;20.014;2023-03-21T13:53:15;98955.63;;;12.87;62.30
33286;BME280;19656;50.096;20.014;2023-03-21T14:03:39;98955.84;;;12.79;62.13
33286;BME280;19656;50.096;20.014;2023-03-21T14:08:46;98953.94;;;12.73;62.45
33286;BME280;19656;50.096;20.014;2023-03-21T14:13:52;98955.63;;;12.69;62.41
33286;BME280;19656;50.096;20.014;2023-03-21T14:19:01;98961.05;;;12.66;62.80
33286;BME280;19656;50.096;20.014;2023-03-21T14:24:11;98961.38;;;12.59;63.04
33286;BME280;19656;50.096;20.014;2023-03-21T14:29:23;98964.81;;;12.55;62.97
33286;BME280;19656;50.096;20.014;2023-03-21T14:34:31;98959.44;;;12.53;63.13
33286;BME280;19656;50.096;20.014;2023-03-21T14:39:36;98960.59;;;12.45;63.51
33286;BME280;19656;50.096;20.014;2023-03-21T14:44:41;98956.52;;;12.40;63.78
33286;BME280;19656;50.096;20.014;2023-03-21T14:49:59;98955.30;;;12.46;63.73
33286;BME280;19656;50.096;20.014;2023-03-21T14:55:13;98957.11;;;12.53;63.62
33286;BME280;19656;50.096;20.014;2023-03-21T15:00:26;98949.98;;;12.56;63.60
33286;BME280;19656;50.096;20.014;2023-03-21T15:05:34;98949.04;;;12.54;63.15
33286;BME280;19656;50.096;20.014;2023-03-21T15:10:40;98953.11;;;12.50;63.16
33286;BME280;19656;50.096;20.014;2023-03-21T15:15:46;98945.15;;;12.44;63.25
33286;BME280;19656;50.096;20.014;2023-03-21T15:20:50;98944.86;;;12.43;63.63
33286;BME280;19656;50.096;20.014;2023-03-21T15:25:54;98939.33;;;12.41;64.03
33286;BME280;19656;50.096;20.014;2023-03-21T15:30:58;98941.58;;;12.34;64.01
33286;BME280;19656;50.096;20.014;2023-03-21T15:36:08;98944.63;;;12.31;63.92
33286;BME280;19656;50.096;20.014;2023-03-21T15:41:15;98943.91;;;12.34;63.82
33286;BME280;19656;50.096;20.014;2023-03-21T15:46:41;98945.66;;;12.37;63.50
33286;BME280;19656;50.096;20.014;2023-03-21T15:51:51;98941.66;;;12.33;63.66
33286;BME280;19656;50.096;20.014;2023-03-21T15:57:02;98942.75;;;12.36;63.63
33286;BME280;19656;50.096;20.014;2023-03-21T16:02:21;98943.50;;;12.28;62.87
33286;BME280;19656;50.096;20.014;2023-03-21T16:07:26;98937.73;;;12.43;63.56
33286;BME280;19656;50.096;20.014;2023-03-21T16:12:29;98938.13;;;12.43;62.68
33286;BME280;19656;50.096;20.014;2023-03-21T16:17:34;98945.79;;;12.40;62.36
33286;BME280;19656;50.096;20.014;2023-03-21T16:22:42;98950.16;;;12.34;62.22
33286;BME280;19656;50.096;20.014;2023-03-21T16:27:46;98953.36;;;12.24;62.29
33286;BME280;19656;50.096;20.014;2023-03-21T16:32:50;98955.40;;;12.20;62.57
33286;BME280;19656;50.096;20.014;2023-03-21T16:37:54;98954.04;;;12.19;62.65
33286;BME280;19656;50.096;20.014;2023-03-21T16:42:58;98954.54;;;12.20;62.83
33286;BME280;19656;50.096;20.014;2023-03-21T16:48:02;98953.16;;;12.19;62.82
33286;BME280;19656;50.096;20.014;2023-03-21T16:53:06;98956.68;;;12.12;62.97
33286;BME280;19656;50.096;20.014;2023-03-21T16:58:13;98961.57;;;12.05;63.12
33286;BME280;19656;50.096;20.014;2023-03-21T17:03:17;98966.74;;;11.97;63.34
33286;BME280;19656;50.096;20.014;2023-03-21T17:08:21;98967.55;;;11.89;63.49
33286;BME280;19656;50.096;20.014;2023-03-21T17:13:25;98968.97;;;11.83;63.66
33286;BME280;19656;50.096;20.014;2023-03-21T17:18:31;98969.41;;;11.79;63.82
33286;BME280;19656;50.096;20.014;2023-03-21T17:23:35;98980.90;;;11.77;64.47
33286;BME280;19656;50.096;20.014;2023-03-21T17:28:39;98979.54;;;11.85;63.97
33286;BME280;19656;50.096;20.014;2023-03-21T17:33:43;98978.71;;;11.89;63.75
33286;BME280;19656;50.096;20.014;2023-03-21T17:38:47;98980.04;;;11.90;63.75
33286;BME280;19656;50.096;20.014;2023-03-21T17:43:50;98987.17;;;11.93;64.65
33286;BME280;19656;50.096;20.014;2023-03-21T17:48:54;98984.21;;;12.05;63.78
33286;BME280;19656;50.096;20.014;2023-03-21T17:53:58;98990.17;;;12.01;63.39
33286;BME280;19656;50.096;20.014;2023-03-21T17:59:04;98991.39;;;11.93;63.31
33286;BME280;19656;50.096;20.014;2023-03-21T18:04:08;98991.67;;;11.87;63.13
33286;BME280;19656;50.096;20.014;2023-03-21T18:09:11;98989.02;;;11.78;63.19
33286;BME280;19656;50.096;20.014;2023-03-21T18:14:15;98996.52;;;11.70;63.13
33286;BME280;19656;50.096;20.014;2023-03-21T18:19:23;99002.71;;;11.67;63.34
33286;BME280;19656;50.096;20.014;2023-03-21T18:24:27;99009.58;;;11.71;63.68
33286;BME280;19656;50.096;20.014;2023-03-21T18:29:31;99010.83;;;11.68;63.59
33286;BME280;19656;50.096;20.014;2023-03-21T18:34:55;99010.73;;;11.72;63.75
33286;BME280;19656;50.096;20.014;2023-03-21T18:40:02;99007.42;;;11.74;63.26
33286;BME280;19656;50.096;20.014;2023-03-21T18:45:09;99006.77;;;11.68;63.36
33286;BME280;19656;50.096;20.014;2023-03-21T18:50:13;99008.29;;;11.67;63.37
33286;BME280;19656;50.096;20.014;2023-03-21T18:55:18;99012.52;;;11.67;63.48
33286;BME280;19656;50.096;20.014;2023-03-21T19:00:23;99018.57;;;11.64;63.62
33286;BME280;19656;50.096;20.014;2023-03-21T19:05:28;99016.27;;;11.64;63.67
33286;BME280;19656;50.096;20.014;2023-03-21T19:10:32;99016.39;;;11.68;63.98
33286;BME280;19656;50.096;20.014;2023-03-21T19:15:36;99012.03;;;11.72;64.34
33286;BME280;19656;50.096;20.014;2023-03-21T19:20:42;99015.15;;;11.73;64.72
33286;BME280;19656;50.096;20.014;2023-03-21T19:25:46;99014.90;;;11.71;65.16
33286;BME280;19656;50.096;20.014;2023-03-21T19:30:49;99017.06;;;11.68;65.39
33286;BME280;19656;50.096;20.014;2023-03-21T19:35:56;99016.58;;;11.68;65.76
33286;BME280;19656;50.096;20.014;2023-03-21T19:41:22;99017.13;;;11.70;66.57
33286;BME280;19656;50.096;20.014;2023-03-21T19:46:26;99016.25;;;11.88;66.52
33286;BME280;19656;50.096;20.014;2023-03-21T19:51:30;99015.14;;;11.81;65.97
33286;BME280;19656;50.096;20.014;2023-03-21T19:56:35;99017.95;;;11.71;66.25
33286;BME280;19656;50.096;20.014;2023-03-21T20:01:39;99030.11;;;11.65;66.28
33286;BME280;19656;50.096;20.014;2023-03-21T20:06:45;99028.31;;;11.62;66.39
33286;BME280;19656;50.096;20.014;2023-03-21T20:11:49;99029.37;;;11.65;66.39
33286;BME280;19656;50.096;20.014;2023-03-21T20:16:55;99028.59;;;11.69;66.27
33286;BME280;19656;50.096;20.014;2023-03-21T20:21:59;99026.44;;;11.71;66.09
33286;BME280;19656;50.096;20.014;2023-03-21T20:27:05;99024.19;;;11.71;66.13
33286;BME280;19656;50.096;20.014;2023-03-21T20:32:08;99026.80;;;11.69;66.07
33286;BME280;19656;50.096;20.014;2023-03-21T20:37:11;99022.96;;;11.68;66.20
33286;BME280;19656;50.096;20.014;2023-03-21T20:42:15;99022.89;;;11.66;66.26
33286;BME280;19656;50.096;20.014;2023-03-21T20:47:19;99019.46;;;11.61;66.32
33286;BME280;19656;50.096;20.014;2023-03-21T20:52:26;99021.85;;;11.57;66.43
33286;BME280;19656;50.096;20.014;2023-03-21T20:58:04;99016.95;;;11.54;66.63
33286;BME280;19656;50.096;20.014;2023-03-21T21:03:27;99017.41;;;11.47;66.78
33286;BME280;19656;50.096;20.014;2023-03-21T21:08:30;99017.92;;;11.45;67.03
33286;BME280;19656;50.096;20.014;2023-03-21T21:13:34;99019.20;;;11.49;67.09
33286;BME280;19656;50.096;20.014;2023-03-21T21:18:38;99021.15;;;11.55;67.17
33286;BME280;19656;50.096;20.014;2023-03-21T21:23:42;99023.34;;;11.59;67.14
33286;BME280;19656;50.096;20.014;2023-03-21T21:28:45;99019.98;;;11.59;67.20
33286;BME280;19656;50.096;20.014;2023-03-21T21:33:49;99016.58;;;11.51;67.27
33286;BME280;19656;50.096;20.014;2023-03-21T21:38:56;99015.29;;;11.44;67.39
33286;BME280;19656;50.096;20.014;2023-03-21T21:44:03;99021.98;;;11.37;67.45
33286;BME280;19656;50.096;20.014;2023-03-21T21:49:06;99021.23;;;11.32;67.58
33286;BME280;19656;50.096;20.014;2023-03-21T21:54:09;99020.40;;;11.26;67.85
33286;BME280;19656;50.096;20.014;2023-03-21T21:59:20;99019.63;;;11.19;68.05
33286;BME280;19656;50.096;20.014;2023-03-21T22:04:24;99016.55;;;11.14;68.22
33286;BME280;19656;50.096;20.014;2023-03-21T22:09:31;99019.48;;;11.18;68.38
33286;BME280;19656;50.096;20.014;2023-03-21T22:14:35;99017.20;;;11.18;68.11
33286;BME280;19656;50.096;20.014;2023-03-21T22:19:38;99020.00;;;11.12;68.06
33286;BME280;19656;50.096;20.014;2023-03-21T22:24:42;99022.10;;;11.08;68.06
33286;BME280;19656;50.096;20.014;2023-03-21T22:29:45;99015.09;;;11.03;68.32
33286;BME280;19656;50.096;20.014;2023-03-21T22:34:49;99014.52;;;10.99;68.45
33286;BME280;19656;50.096;20.014;2023-03-21T22:39:53;99012.11;;;10.95;68.54
33286;BME280;19656;50.096;20.014;2023-03-21T22:44:56;99013.70;;;10.89;68.70
33286;BME280;19656;50.096;20.014;2023-03-21T22:49:59;99009.30;;;10.85;68.89
33286;BME280;19656;50.096;20.014;2023-03-21T22:55:03;99011.59;;;10.89;69.09
33286;BME280;19656;50.096;20.014;2023-03-21T23:00:07;99009.17;;;10.96;69.00
33286;BME280;19656;50.096;20.014;2023-03-21T23:05:16;99009.02;;;10.96;68.88
33286;BME280;19656;50.096;20.014;2023-03-21T23:10:19;99005.50;;;10.92;68.81
33286;BME280;19656;50.096;20.014;2023-03-21T23:15:23;99006.96;;;10.86;68.79
33286;BME280;19656;50.096;20.014;2023-03-21T23:20:31;99003.56;;;10.78;68.86
33286;BME280;19656;50.096;20.014;2023-03-21T23:25:41;98998.37;;;10.73;68.85
33286;BME280;19656;50.096;20.014;2023-03-21T23:30:45;98999.55;;;10.69;68.94
33286;BME280;19656;50.096;20.014;2023-03-21T23:35:48;98994.55;;;10.63;68.99
33286;BME280;19656;50.096;20.014;2023-03-21T23:40:52;98990.73;;;10.62;69.04
33286;BME280;19656;50.096;20.014;2023-03-21T23:45:56;98992.30;;;10.66;68.98
33286;BME280;19656;50.096;20.014;2023-03-21T23:51:02;98986.35;;;10.64;68.89
33286;BME280;19656;50.096;20.014;2023-03-21T23:56:14;98986.55;;;10.61;68.84
